createdAt,value
2022-12-04T00:13:41.827Z,108.9
2022-12-04T00:29:25.046Z,103.3
2022-12-04T00:45:07.695Z,103.9
2022-12-04T01:00:50.578Z,119.1
2022-12-04T01:16:33.099Z,119.7
2022-12-04T01:32:16.176Z,118.6
2022-12-04T01:47:59.009Z,139.6
2022-12-04T02:03:41.386Z,127.5
2022-12-04T02:19:23.737Z,139.5
2022-12-04T02:35:06.580Z,151.6
2022-12-04T02:50:49.397Z,136.6
2022-12-04T03:06:31.722Z,127.9
2022-12-04T03:22:14.581Z,139.39
2022-12-04T03:37:56.971Z,141.89
2022-12-04T03:53:39.204Z,129.6
2022-12-04T04:09:21.773Z,131.1
2022-12-04T04:25:04.346Z,127.7
2022-12-04T04:40:46.832Z,125.6
2022-12-04T04:56:29.072Z,122.7
2022-12-04T05:12:11.772Z,122.7
2022-12-04T05:27:55.021Z,124.5
2022-12-04T05:43:37.837Z,117.1
2022-12-04T05:59:20.730Z,121.4
2022-12-04T06:15:02.942Z,130.5
2022-12-04T06:30:45.577Z,129.39
2022-12-04T06:46:28.109Z,128.89
2022-12-04T07:02:11.195Z,131.7
2022-12-04T07:17:53.995Z,128
2022-12-04T07:33:37.148Z,129.8
2022-12-04T07:49:20.000Z,125.3
2022-12-04T08:05:02.358Z,120.2
2022-12-04T08:20:44.807Z,119.1
2022-12-04T08:36:27.757Z,119
2022-12-04T08:52:10.195Z,116.9
2022-12-04T09:07:52.932Z,107
2022-12-04T09:23:35.638Z,110.1
2022-12-04T09:39:17.996Z,98.5
2022-12-04T09:55:00.765Z,93.5
2022-12-04T10:10:43.863Z,92.1
2022-12-04T10:26:26.608Z,86.7
2022-12-04T10:42:09.744Z,106.4
2022-12-04T10:57:52.530Z,68.5
2022-12-04T11:13:35.671Z,74.1
2022-12-04T11:29:18.799Z,66
2022-12-04T11:45:01.101Z,65
2022-12-04T12:00:43.376Z,64.9
2022-12-04T12:16:25.890Z,67.1
2022-12-04T12:32:08.601Z,71.3
2022-12-04T12:47:50.721Z,75.5
2022-12-04T13:03:32.934Z,78.6
2022-12-04T13:19:15.900Z,82.3
2022-12-04T13:34:58.798Z,84.7
2022-12-04T13:50:41.259Z,95
2022-12-04T14:06:23.752Z,109.4
2022-12-04T14:22:06.252Z,117
2022-12-04T14:37:49.128Z,127.7
2022-12-04T14:53:31.408Z,131
2022-12-04T15:09:13.763Z,148.8
2022-12-04T15:24:56.024Z,152.6
2022-12-04T15:40:38.358Z,167
2022-12-04T15:56:20.739Z,187.9
2022-12-04T16:12:03.481Z,200.7
2022-12-04T16:27:46.381Z,204.9
2022-12-04T16:43:28.793Z,215.3
2022-12-04T16:59:11.625Z,213.5
2022-12-04T17:14:53.973Z,213.3
2022-12-04T17:30:36.793Z,198.1
2022-12-04T17:31:24.191Z,228
2022-12-04T17:47:06.504Z,210.3
2022-12-04T18:02:49.358Z,198.8
2022-12-04T18:18:32.429Z,188.8
2022-12-04T18:34:15.083Z,193.3
2022-12-04T18:49:57.359Z,187.9
2022-12-04T19:05:40.382Z,174.7
2022-12-04T19:21:23.333Z,176.4
2022-12-04T19:37:05.931Z,166.4
2022-12-04T19:52:49.118Z,175.3
2022-12-04T20:08:31.981Z,161.3
2022-12-04T20:24:14.300Z,172.7
2022-12-04T20:39:57.060Z,176.2
2022-12-04T20:55:39.682Z,162.7
2022-12-04T21:11:21.818Z,193.2
2022-12-04T21:27:04.907Z,176.5
2022-12-04T21:42:47.714Z,176.1
2022-12-04T21:58:29.895Z,173.9
2022-12-04T22:14:12.721Z,165.7
2022-12-04T22:29:55.810Z,167.9
2022-12-04T22:45:38.059Z,166.2
2022-12-04T23:01:20.942Z,169.5
2022-12-04T23:17:03.200Z,170.1
2022-12-04T23:32:45.425Z,185.1
2022-12-04T23:48:28.105Z,196.2
